MSC Flavia — 3FBD7 — position and weather

sailwx.info

Track history (hours):
 
Tides and Currents Weather Stations Pressure Air Temp Water Temp Dewpoint Dewpoint Depression Visibility Wind Speed Wind Dir Waves Ship Positions

MSC Flavia

Last reported at 2014-Jul-07 22:33 UTC. Time now 2014-Jul-23 23:44 UTC.
Position N 30°60' E 032°19'.
Warning: this ship's position is 16 days out of date.

Length 366 m; draft 14.3 m.

Type: Ship (hazmat cat A). MMSI: 373004000.

Date/timePositionNaut miles runAvg speedWind from/ knotsBaromVisibWave heightAir tempDewpointWater temp
2014-Jul-07 22:33N 30°60' E 032°19'9 8.6
2014-Jul-07 21:34N 31°08' E 032°19'8 7.8
2014-Jul-07 20:34N 31°16' E 032°21'1110.5
2014-Jul-07 19:34N 31°26' E 032°24'3 3.5
2014-Jul-07 18:33N 31°27' E 032°20'0 0.0
2014-Jul-07 17:33N 31°27' E 032°20'1 1.4
2014-Jul-07 16:33N 31°27' E 032°19'8 8.3
2014-Jul-07 15:33N 31°33' E 032°12'1211.7
2014-Jul-07 14:33N 31°41' E 032°02'1211.9
2014-Jul-07 13:33N 31°48' E 031°51'1312.9
2014-Jul-07 12:33N 31°54' E 031°37'1413.9
2014-Jul-07 11:32N 31°59' E 031°22'1514.1
2014-Jul-07 10:30N 32°05' E 031°06'1413.5
2014-Jul-07 09:30N 32°10' E 030°51'1313.7
2014-Jul-07 08:33N 32°15' E 030°37'1414.3
2014-Jul-07 07:33N 32°21' E 030°22'1515.2
2014-Jul-07 06:33N 32°26' E 030°05'1515.3
2014-Jul-07 05:33N 32°32' E 029°48'1615.7
2014-Jul-07 04:33N 32°37' E 029°30'1515.5
2014-Jul-07 03:34N 32°43' E 029°13'1515.3
2014-Jul-07 02:33N 32°49' E 028°57'2115.8
2014-Jul-07 01:13N 32°58' E 028°34'1015.9
2014-Jul-07 00:34N 33°02' E 028°22'1616.0
2014-Jul-06 23:34N 33°10' E 028°05'1616.2
2014-Jul-06 22:34N 33°16' E 027°48'1616.3
2014-Jul-06 21:33N 33°23' E 027°30'26616.7
2014-Jul-06 05:33N 35°10' E 022°35'38116.6
2014-Jul-05 06:32N 38°10' E 015°35'23 2.0
2014-Jul-04 19:05N 38°28' E 015°55'0 0.0
2014-Jul-04 18:29N 38°28' E 015°55'0 0.0
2014-Jul-04 17:29N 38°28' E 015°55'0 0.0
2014-Jul-04 16:29N 38°28' E 015°55'0 0.0
2014-Jul-04 15:29N 38°28' E 015°55'0 0.0
2014-Jul-04 14:29N 38°28' E 015°55'0 0.0
2014-Jul-04 13:29N 38°28' E 015°55'0 0.0
2014-Jul-04 12:29N 38°28' E 015°55'0 0.0
2014-Jul-04 11:29N 38°28' E 015°55'0 0.0
2014-Jul-04 10:23N 38°28' E 015°55'0 0.0
2014-Jul-04 09:29N 38°28' E 015°55'0 0.0
2014-Jul-04 08:23N 38°28' E 015°55'0 0.0
2014-Jul-04 07:29N 38°28' E 015°55'0 0.0
2014-Jul-04 06:29N 38°28' E 015°55'0 0.0
2014-Jul-04 05:29N 38°28' E 015°55'0 0.0
2014-Jul-04 04:29N 38°28' E 015°55'0 0.0
2014-Jul-03 18:28N 38°28' E 015°55'0 0.0
2014-Jul-03 17:28N 38°28' E 015°55'0 0.0
2014-Jul-03 16:29N 38°28' E 015°55'0 0.0
2014-Jul-03 15:28N 38°28' E 015°55'0 0.0
2014-Jul-03 14:28N 38°28' E 015°55'0 0.0
2014-Jul-03 13:28N 38°28' E 015°55'0 0.0
2014-Jul-03 12:23N 38°28' E 015°55'0 0.0
2014-Jul-03 11:28N 38°28' E 015°55'0 0.0
2014-Jul-03 10:25N 38°28' E 015°55'0 0.0
2014-Jul-03 09:29N 38°28' E 015°55'0 0.0
2014-Jul-03 08:28N 38°28' E 015°55'22 3.0
2014-Jul-03 01:10N 38°25' E 015°26'2314.5
2014-Jul-02 23:33N 38°18' E 014°58'1615.5
2014-Jul-02 22:33N 38°17' E 014°39'1616.0
2014-Jul-02 21:33N 38°18' E 014°18'1716.9
2014-Jul-02 20:33N 38°19' E 013°57'1716.9
2014-Jul-02 19:33N 38°17' E 013°35'1616.3
2014-Jul-02 18:33N 38°20' E 013°15'1616.2
2014-Jul-02 17:33N 38°21' E 012°54'1616.4
2014-Jul-02 16:33N 38°20' E 012°33'2016.9
2014-Jul-02 15:22N 38°17' E 012°08'6416.8
2014-Jul-02 11:33N 38°06' E 010°48'1616.3
2014-Jul-02 10:33N 38°03' E 010°27'1616.4
2014-Jul-02 09:33N 38°01' E 010°07'1716.7
2014-Jul-02 08:33N 37°58' E 009°46'1716.6
2014-Jul-02 07:33N 37°55' E 009°25'1918.7
2014-Jul-02 06:33N 37°52' E 009°02'1918.8
2014-Jul-02 05:33N 37°49' E 008°38'1616.3
2014-Jul-02 04:33N 37°47' E 008°18'1918.1
2014-Jul-02 03:32N 37°43' E 007°55'2016.9
2014-Jul-02 02:22N 37°40' E 007°30'1517.0
2014-Jul-02 01:31N 37°38' E 007°12'1716.8
2014-Jul-02 00:31N 37°35' E 006°51'1716.9
2014-Jul-01 23:31N 37°32' E 006°30'1616.2
2014-Jul-01 22:34N 37°29' E 006°11'1515.4
2014-Jul-01 21:33N 37°27' E 005°52'1716.8
2014-Jul-01 20:33N 37°24' E 005°31'1717.4
2014-Jul-01 19:33N 37°21' E 005°09'1616.0
2014-Jul-01 18:34N 37°19' E 004°50'1716.9
2014-Jul-01 17:33N 37°16' E 004°29'1716.9
2014-Jul-01 16:33N 37°13' E 004°08'1717.1
2014-Jul-01 15:33N 37°10' E 003°46'1717.6
2014-Jul-01 14:33N 37°07' E 003°25'1817.8
2014-Jul-01 13:33N 37°04' E 003°03'1717.4
2014-Jul-01 12:33N 37°01' E 002°41'1716.9
2014-Jul-01 11:33N 36°59' E 002°20'1716.9
2014-Jul-01 10:33N 36°56' E 001°60'2018.0
2014-Jul-01 09:27N 36°52' E 001°35'1416.2
2014-Jul-01 08:33N 36°50' E 001°17'2217.3
2014-Jul-01 07:16N 36°46' E 000°50'1317.5
2014-Jul-01 06:32N 36°44' E 000°34'1817.9
2014-Jul-01 05:32N 36°41' E 000°12'2118.1
2014-Jul-01 04:23N 36°38' W 000°14'1518.2
2014-Jul-01 03:33N 36°36' W 000°32'5516.9
2014-Jul-01 00:17N 36°26' W 001°40'1317.3
2014-Jun-30 23:33N 36°24' W 001°55'4217.1
2014-Jun-30 21:08N 36°18' W 002°46'12318.2
2014-Jun-30 14:22N 35°60' W 005°17'8317.3
2014-Jun-30 09:33N 36°04' W 006°60'2417.3
2014-Jun-30 08:11N 36°10' W 007°28'1217.5
2014-Jun-30 07:30N 36°13' W 007°42'5117.5
2014-Jun-30 04:33N 36°27' W 008°44'2017.1
2014-Jun-30 03:24N 36°32' W 009°08'1416.4
2014-Jun-30 02:33N 36°39' W 009°23'1816.4
2014-Jun-30 01:26N 36°55' W 009°35'2317.7
2014-Jun-30 00:08N 37°17' W 009°41'1117.8
2014-Jun-29 23:32N 37°28' W 009°44'1717.9
2014-Jun-29 22:33N 37°45' W 009°49'1917.8
2014-Jun-29 21:31N 38°03' W 009°55'1918.1
2014-Jun-29 20:29N 38°21' W 010°01'  
Track history (hours):
 
Tides and Currents Weather Stations Pressure Air Temp Water Temp Dewpoint Dewpoint Depression Visibility Wind Speed Wind Dir Waves Ship Positions

MSC Flavia

Last reported at 2014-Jul-07 22:33 UTC. Time now 2014-Jul-23 23:44 UTC.
Position N 30°60' E 032°19'.
Warning: this ship's position is 16 days out of date.

Length 366 m; draft 14.3 m.

Type: Ship (hazmat cat A). MMSI: 373004000.

Date/timePositionNaut miles runAvg speedWind from/ knotsBaromVisibWave heightAir tempDewpointWater temp
2014-Jul-07 22:33N 30°60' E 032°19'9 8.6
2014-Jul-07 21:34N 31°08' E 032°19'8 7.8
2014-Jul-07 20:34N 31°16' E 032°21'1110.5
2014-Jul-07 19:34N 31°26' E 032°24'3 3.5
2014-Jul-07 18:33N 31°27' E 032°20'0 0.0
2014-Jul-07 17:33N 31°27' E 032°20'1 1.4
2014-Jul-07 16:33N 31°27' E 032°19'8 8.3
2014-Jul-07 15:33N 31°33' E 032°12'1211.7
2014-Jul-07 14:33N 31°41' E 032°02'1211.9
2014-Jul-07 13:33N 31°48' E 031°51'1312.9
2014-Jul-07 12:33N 31°54' E 031°37'1413.9
2014-Jul-07 11:32N 31°59' E 031°22'1514.1
2014-Jul-07 10:30N 32°05' E 031°06'1413.5
2014-Jul-07 09:30N 32°10' E 030°51'1313.7
2014-Jul-07 08:33N 32°15' E 030°37'1414.3
2014-Jul-07 07:33N 32°21' E 030°22'1515.2
2014-Jul-07 06:33N 32°26' E 030°05'1515.3
2014-Jul-07 05:33N 32°32' E 029°48'1615.7
2014-Jul-07 04:33N 32°37' E 029°30'1515.5
2014-Jul-07 03:34N 32°43' E 029°13'1515.3
2014-Jul-07 02:33N 32°49' E 028°57'2115.8
2014-Jul-07 01:13N 32°58' E 028°34'1015.9
2014-Jul-07 00:34N 33°02' E 028°22'1616.0
2014-Jul-06 23:34N 33°10' E 028°05'1616.2
2014-Jul-06 22:34N 33°16' E 027°48'1616.3
2014-Jul-06 21:33N 33°23' E 027°30'26616.7
2014-Jul-06 05:33N 35°10' E 022°35'38116.6
2014-Jul-05 06:32N 38°10' E 015°35'23 2.0
2014-Jul-04 19:05N 38°28' E 015°55'0 0.0
2014-Jul-04 18:29N 38°28' E 015°55'0 0.0
2014-Jul-04 17:29N 38°28' E 015°55'0 0.0
2014-Jul-04 16:29N 38°28' E 015°55'0 0.0
2014-Jul-04 15:29N 38°28' E 015°55'0 0.0
2014-Jul-04 14:29N 38°28' E 015°55'0 0.0
2014-Jul-04 13:29N 38°28' E 015°55'0 0.0
2014-Jul-04 12:29N 38°28' E 015°55'0 0.0
2014-Jul-04 11:29N 38°28' E 015°55'0 0.0
2014-Jul-04 10:23N 38°28' E 015°55'0 0.0
2014-Jul-04 09:29N 38°28' E 015°55'0 0.0
2014-Jul-04 08:23N 38°28' E 015°55'0 0.0
2014-Jul-04 07:29N 38°28' E 015°55'0 0.0
2014-Jul-04 06:29N 38°28' E 015°55'0 0.0
2014-Jul-04 05:29N 38°28' E 015°55'0 0.0
2014-Jul-04 04:29N 38°28' E 015°55'0 0.0
2014-Jul-03 18:28N 38°28' E 015°55'0 0.0
2014-Jul-03 17:28N 38°28' E 015°55'0 0.0
2014-Jul-03 16:29N 38°28' E 015°55'0 0.0
2014-Jul-03 15:28N 38°28' E 015°55'0 0.0
2014-Jul-03 14:28N 38°28' E 015°55'0 0.0
2014-Jul-03 13:28N 38°28' E 015°55'0 0.0
2014-Jul-03 12:23N 38°28' E 015°55'0 0.0
2014-Jul-03 11:28N 38°28' E 015°55'0 0.0
2014-Jul-03 10:25N 38°28' E 015°55'0 0.0
2014-Jul-03 09:29N 38°28' E 015°55'0 0.0
2014-Jul-03 08:28N 38°28' E 015°55'22 3.0
2014-Jul-03 01:10N 38°25' E 015°26'2314.5
2014-Jul-02 23:33N 38°18' E 014°58'1615.5
2014-Jul-02 22:33N 38°17' E 014°39'1616.0
2014-Jul-02 21:33N 38°18' E 014°18'1716.9
2014-Jul-02 20:33N 38°19' E 013°57'1716.9
2014-Jul-02 19:33N 38°17' E 013°35'1616.3
2014-Jul-02 18:33N 38°20' E 013°15'1616.2
2014-Jul-02 17:33N 38°21' E 012°54'1616.4
2014-Jul-02 16:33N 38°20' E 012°33'2016.9
2014-Jul-02 15:22N 38°17' E 012°08'6416.8
2014-Jul-02 11:33N 38°06' E 010°48'1616.3
2014-Jul-02 10:33N 38°03' E 010°27'1616.4
2014-Jul-02 09:33N 38°01' E 010°07'1716.7
2014-Jul-02 08:33N 37°58' E 009°46'1716.6
2014-Jul-02 07:33N 37°55' E 009°25'1918.7
2014-Jul-02 06:33N 37°52' E 009°02'1918.8
2014-Jul-02 05:33N 37°49' E 008°38'1616.3
2014-Jul-02 04:33N 37°47' E 008°18'1918.1
2014-Jul-02 03:32N 37°43' E 007°55'2016.9
2014-Jul-02 02:22N 37°40' E 007°30'1517.0
2014-Jul-02 01:31N 37°38' E 007°12'1716.8
2014-Jul-02 00:31N 37°35' E 006°51'1716.9
2014-Jul-01 23:31N 37°32' E 006°30'1616.2
2014-Jul-01 22:34N 37°29' E 006°11'1515.4
2014-Jul-01 21:33N 37°27' E 005°52'1716.8
2014-Jul-01 20:33N 37°24' E 005°31'1717.4
2014-Jul-01 19:33N 37°21' E 005°09'1616.0
2014-Jul-01 18:34N 37°19' E 004°50'1716.9
2014-Jul-01 17:33N 37°16' E 004°29'1716.9
2014-Jul-01 16:33N 37°13' E 004°08'1717.1
2014-Jul-01 15:33N 37°10' E 003°46'1717.6
2014-Jul-01 14:33N 37°07' E 003°25'1817.8
2014-Jul-01 13:33N 37°04' E 003°03'1717.4
2014-Jul-01 12:33N 37°01' E 002°41'1716.9
2014-Jul-01 11:33N 36°59' E 002°20'1716.9
2014-Jul-01 10:33N 36°56' E 001°60'2018.0
2014-Jul-01 09:27N 36°52' E 001°35'1416.2
2014-Jul-01 08:33N 36°50' E 001°17'2217.3
2014-Jul-01 07:16N 36°46' E 000°50'1317.5
2014-Jul-01 06:32N 36°44' E 000°34'1817.9
2014-Jul-01 05:32N 36°41' E 000°12'2118.1
2014-Jul-01 04:23N 36°38' W 000°14'1518.2
2014-Jul-01 03:33N 36°36' W 000°32'5516.9
2014-Jul-01 00:17N 36°26' W 001°40'1317.3
2014-Jun-30 23:33N 36°24' W 001°55'4217.1
2014-Jun-30 21:08N 36°18' W 002°46'12318.2
2014-Jun-30 14:22N 35°60' W 005°17'8317.3
2014-Jun-30 09:33N 36°04' W 006°60'2417.3
2014-Jun-30 08:11N 36°10' W 007°28'1217.5
2014-Jun-30 07:30N 36°13' W 007°42'5117.5
2014-Jun-30 04:33N 36°27' W 008°44'2017.1
2014-Jun-30 03:24N 36°32' W 009°08'1416.4
2014-Jun-30 02:33N 36°39' W 009°23'1816.4
2014-Jun-30 01:26N 36°55' W 009°35'2317.7
2014-Jun-30 00:08N 37°17' W 009°41'1117.8
2014-Jun-29 23:32N 37°28' W 009°44'1717.9
2014-Jun-29 22:33N 37°45' W 009°49'1917.8
2014-Jun-29 21:31N 38°03' W 009°55'1918.1
2014-Jun-29 20:29N 38°21' W 010°01'  

Dump ship's entire track history